Time;durP1;ratioP1;P1;durP2;ratioP2;P2;SDS_P1;SDS_P2;PMS_P1;PMS_P2;Temp;Humidity;BMP_temperature;BMP_pressure;BME280_temperature;BME280_humidity;BME280_pressure;Samples;Min_cycle;Max_cycle;Signal;HPM_P1;HPM_P2
2020/12/27 00:02:25;;;;;;;1.90;1.80;;;8.80;71.20;;;;;;5000815;28;20033;-79
2020/12/27 00:04:50;;;;;;;2.15;1.95;;;8.80;71.20;;;;;;5002395;28;20042;-79
2020/12/27 00:07:16;;;;;;;2.38;1.75;;;8.80;71.20;;;;;;5002734;28;20117;-80
2020/12/27 00:09:43;;;;;;;1.98;1.88;;;8.80;71.30;;;;;;5003500;28;20569;-80
2020/12/27 00:12:10;;;;;;;1.55;1.45;;;8.80;71.40;;;;;;4999596;28;20111;-79
2020/12/27 00:14:36;;;;;;;3.00;2.13;;;8.80;71.40;;;;;;5002387;28;20506;-80
2020/12/27 00:17:12;;;;;;;2.03;1.80;;;8.80;71.50;;;;;;5000995;28;20030;-79
2020/12/27 00:19:39;;;;;;;2.10;1.90;;;8.80;71.40;;;;;;4998325;28;20076;-80
2020/12/27 00:22:04;;;;;;;2.22;2.03;;;8.80;71.50;;;;;;5000538;28;20042;-80
2020/12/27 00:24:31;;;;;;;1.77;1.40;;;8.80;71.40;;;;;;5000627;28;20045;-79
2020/12/27 00:26:56;;;;;;;1.45;1.35;;;8.90;71.50;;;;;;4994609;28;20515;-79
2020/12/27 00:29:23;;;;;;;2.05;1.75;;;8.80;71.50;;;;;;4996935;28;20034;-79
2020/12/27 00:31:50;;;;;;;1.60;1.40;;;8.80;71.40;;;;;;4997799;28;20034;-79
2020/12/27 00:34:16;;;;;;;1.70;1.60;;;8.80;71.50;;;;;;5001108;28;20030;-79
2020/12/27 00:36:41;;;;;;;1.70;1.60;;;8.90;71.40;;;;;;4995824;28;20045;-76
2020/12/27 00:39:07;;;;;;;1.25;1.15;;;8.90;71.90;;;;;;4995196;28;20041;-78
2020/12/27 00:41:33;;;;;;;1.48;1.30;;;8.90;71.40;;;;;;5003292;28;20084;-77
2020/12/27 00:44:00;;;;;;;1.38;1.27;;;8.90;71.40;;;;;;5001634;28;20037;-77
2020/12/27 00:46:25;;;;;;;1.83;1.73;;;8.90;71.40;;;;;;4996034;28;20122;-77
2020/12/27 00:48:51;;;;;;;1.73;1.63;;;8.90;71.40;;;;;;5001377;28;20171;-77
2020/12/27 00:51:20;;;;;;;1.50;1.40;;;8.90;71.40;;;;;;5000830;28;20030;-77
2020/12/27 00:53:46;;;;;;;1.55;1.40;;;8.90;71.40;;;;;;4995889;28;20034;-80
2020/12/27 00:56:11;;;;;;;1.70;1.58;;;8.90;71.40;;;;;;4997423;28;20053;-80
2020/12/27 00:58:39;;;;;;;1.30;1.20;;;8.90;71.40;;;;;;4996888;28;20019;-79
2020/12/27 01:01:06;;;;;;;1.33;1.23;;;9.00;71.40;;;;;;4999505;28;20549;-79
2020/12/27 01:03:32;;;;;;;1.65;1.25;;;9.00;71.40;;;;;;4998668;28;20045;-79
2020/12/27 01:05:58;;;;;;;1.40;1.25;;;9.00;71.30;;;;;;4997419;28;20042;-79
2020/12/27 01:08:23;;;;;;;2.30;1.33;;;9.00;71.40;;;;;;5000865;28;20088;-78
2020/12/27 01:10:49;;;;;;;1.48;1.38;;;9.00;71.30;;;;;;4999014;28;20026;-80
2020/12/27 01:13:14;;;;;;;1.55;1.33;;;9.00;71.10;;;;;;4999726;28;20049;-78
2020/12/27 01:15:40;;;;;;;1.13;1.02;;;9.00;71.20;;;;;;5000991;28;20026;-79
2020/12/27 01:18:06;;;;;;;1.35;1.25;;;9.10;71.20;;;;;;5001839;28;20041;-78
2020/12/27 01:20:33;;;;;;;1.02;0.93;;;9.00;71.10;;;;;;4997931;28;20153;-79
2020/12/27 01:22:59;;;;;;;0.80;0.80;;;9.00;71.10;;;;;;4995586;28;20034;-79
2020/12/27 01:25:24;;;;;;;1.55;1.30;;;9.10;71.30;;;;;;4996681;28;20107;-76
2020/12/27 01:27:49;;;;;;;1.15;1.05;;;9.10;71.20;;;;;;4997180;28;20636;-78
2020/12/27 01:30:15;;;;;;;1.20;1.10;;;9.10;71.20;;;;;;5001520;28;20076;-79
2020/12/27 01:32:41;;;;;;;1.00;0.90;;;9.10;71.20;;;;;;4995274;28;20068;-80
2020/12/27 01:35:07;;;;;;;1.52;1.00;;;9.10;71.20;;;;;;4995384;28;20026;-80
2020/12/27 01:37:32;;;;;;;0.85;0.80;;;9.10;71.20;;;;;;4998842;28;20053;-77
2020/12/27 01:39:58;;;;;;;0.95;0.85;;;9.20;71.20;;;;;;4993001;28;20113;-80
2020/12/27 01:42:23;;;;;;;0.80;0.80;;;9.20;71.10;;;;;;4998502;28;20537;-79
2020/12/27 01:44:49;;;;;;;0.90;0.80;;;9.20;71.10;;;;;;4991799;28;20049;-79
2020/12/27 01:47:16;;;;;;;1.25;0.90;;;9.20;71.50;;;;;;4995762;28;20049;-79
2020/12/27 01:49:45;;;;;;;1.00;0.90;;;9.30;70.90;;;;;;4988696;28;20050;-79
2020/12/27 01:52:11;;;;;;;1.70;1.02;;;9.20;70.60;;;;;;4992167;28;20034;-79
2020/12/27 01:54:38;;;;;;;0.70;0.70;;;9.20;70.60;;;;;;4981289;28;20041;-79
2020/12/27 01:57:10;;;;;;;1.23;0.85;;;9.10;70.60;;;;;;4990017;28;20706;-78
2020/12/27 01:59:36;;;;;;;1.10;0.95;;;9.10;70.50;;;;;;4977746;28;20415;-80
2020/12/27 02:02:02;;;;;;;1.42;0.82;;;9.10;70.60;;;;;;4990238;28;20037;-79
2020/12/27 02:04:28;;;;;;;1.10;0.95;;;9.10;70.50;;;;;;4987165;28;20038;-78
2020/12/27 02:06:54;;;;;;;2.28;0.90;;;9.10;70.50;;;;;;4988556;28;20029;-78
2020/12/27 02:09:20;;;;;;;1.75;0.80;;;9.10;70.50;;;;;;4990890;28;20487;-78
2020/12/27 02:11:45;;;;;;;0.80;0.80;;;9.10;70.60;;;;;;4981316;28;20121;-78
2020/12/27 02:14:11;;;;;;;1.77;0.93;;;9.20;70.50;;;;;;4987791;28;20045;-79
2020/12/27 02:16:38;;;;;;;0.75;0.75;;;9.00;70.40;;;;;;4979596;28;20503;-79
2020/12/27 02:19:07;;;;;;;1.00;0.80;;;9.10;70.50;;;;;;4987105;28;20022;-79
2020/12/27 02:21:32;;;;;;;0.93;0.80;;;9.10;70.40;;;;;;4980622;28;20064;-78
2020/12/27 02:24:01;;;;;;;0.60;0.60;;;9.10;70.90;;;;;;4989017;28;20448;-79
2020/12/27 02:26:28;;;;;;;0.70;0.60;;;9.10;70.30;;;;;;4984813;28;20049;-78
2020/12/27 02:28:55;;;;;;;0.43;0.43;;;9.10;70.50;;;;;;4994380;28;20064;-79
2020/12/27 02:31:22;;;;;;;0.65;0.60;;;9.10;70.40;;;;;;4993259;28;20034;-78
2020/12/27 02:33:48;;;;;;;0.88;0.88;;;9.00;70.30;;;;;;4980838;28;20109;-79
2020/12/27 02:36:13;;;;;;;0.50;0.50;;;9.10;70.40;;;;;;4987442;28;20133;-79
2020/12/27 02:38:39;;;;;;;0.88;0.80;;;9.00;70.30;;;;;;4980757;28;20491;-77
2020/12/27 02:41:15;;;;;;;1.30;1.05;;;9.00;70.40;;;;;;4985628;28;20415;-79
2020/12/27 02:43:40;;;;;;;0.52;0.52;;;9.00;70.10;;;;;;4981850;28;20041;-79
2020/12/27 02:46:28;;;;;;;0.85;0.70;;;9.00;70.30;;;;;;4999778;28;20112;-79
2020/12/27 02:48:54;;;;;;;0.70;0.70;;;9.00;70.20;;;;;;5001360;28;20034;-76
2020/12/27 02:51:20;;;;;;;0.70;0.70;;;9.00;70.30;;;;;;5005122;28;20938;-77
2020/12/27 02:53:49;;;;;;;0.47;0.38;;;9.00;70.30;;;;;;5009357;28;20049;-76
2020/12/27 02:56:16;;;;;;;0.50;0.50;;;9.00;70.30;;;;;;5006753;28;20076;-75
2020/12/27 02:58:41;;;;;;;0.68;0.52;;;9.00;70.20;;;;;;5010085;28;20083;-78
2020/12/27 03:01:07;;;;;;;0.50;0.50;;;9.00;70.20;;;;;;4998831;28;20438;-79
2020/12/27 03:03:32;;;;;;;2.20;0.75;;;9.00;70.00;;;;;;5002939;28;20034;-79
2020/12/27 03:05:58;;;;;;;0.43;0.40;;;8.90;69.90;;;;;;5001996;28;20049;-79
2020/12/27 03:08:23;;;;;;;0.55;0.55;;;9.00;70.00;;;;;;5003628;28;21505;-78
2020/12/27 03:10:49;;;;;;;0.98;0.63;;;8.90;69.90;;;;;;4999299;28;20030;-78
2020/12/27 03:13:14;;;;;;;1.15;0.80;;;8.90;69.90;;;;;;5008197;28;20049;-78
2020/12/27 03:15:40;;;;;;;1.05;0.80;;;8.90;69.80;;;;;;5001963;28;20407;-78
2020/12/27 03:18:05;;;;;;;0.60;0.60;;;9.00;69.80;;;;;;5002501;28;20041;-78
2020/12/27 03:20:31;;;;;;;0.50;0.50;;;8.90;69.80;;;;;;5001169;28;20045;-79
2020/12/27 03:22:56;;;;;;;0.43;0.43;;;8.90;69.80;;;;;;5001271;28;20022;-78
2020/12/27 03:25:22;;;;;;;1.38;0.60;;;8.90;69.80;;;;;;5003817;28;20033;-78
2020/12/27 03:27:47;;;;;;;0.47;0.47;;;8.80;69.70;;;;;;5004112;28;20084;-79
2020/12/27 03:30:13;;;;;;;0.60;0.50;;;8.90;69.80;;;;;;5001959;28;20036;-78
2020/12/27 03:32:39;;;;;;;0.65;0.52;;;8.80;69.70;;;;;;5001591;28;20041;-79
2020/12/27 03:35:04;;;;;;;0.45;0.45;;;8.80;69.60;;;;;;5001808;28;20046;-78
2020/12/27 03:37:35;;;;;;;1.15;0.70;;;8.80;69.40;;;;;;5005927;28;20053;-79
2020/12/27 03:40:02;;;;;;;0.57;0.57;;;8.70;69.40;;;;;;5001302;28;20034;-78
2020/12/27 03:42:28;;;;;;;0.73;0.52;;;8.80;69.50;;;;;;5003108;28;20041;-77
2020/12/27 03:44:53;;;;;;;1.00;0.75;;;8.80;69.40;;;;;;5003741;28;20044;-78
2020/12/27 03:47:19;;;;;;;0.93;0.70;;;8.80;69.10;;;;;;5006623;28;20041;-79
2020/12/27 03:49:44;;;;;;;0.98;0.50;;;8.70;69.20;;;;;;5001363;28;20065;-78
2020/12/27 03:52:10;;;;;;;0.60;0.60;;;8.70;69.10;;;;;;5008772;28;20060;-78
2020/12/27 03:54:35;;;;;;;1.08;0.60;;;8.70;69.20;;;;;;5006220;28;20049;-78
2020/12/27 03:57:01;;;;;;;0.70;0.68;;;8.70;69.10;;;;;;4999245;28;20033;-77
2020/12/27 03:59:26;;;;;;;1.55;0.60;;;8.60;69.10;;;;;;5031154;23;20084;-78
2020/12/27 04:01:52;;;;;;;0.68;0.57;;;8.60;69.10;;;;;;5013547;28;20403;-77
2020/12/27 04:04:17;;;;;;;1.88;0.63;;;8.60;69.10;;;;;;5004018;28;20112;-77
2020/12/27 04:06:43;;;;;;;1.02;0.75;;;8.60;69.10;;;;;;5017080;28;20025;-77
2020/12/27 04:09:08;;;;;;;0.57;0.47;;;8.60;69.10;;;;;;5022049;28;20026;-77
2020/12/27 04:11:35;;;;;;;0.90;0.60;;;8.60;69.10;;;;;;5023865;28;20506;-77
2020/12/27 04:14:01;;;;;;;0.95;0.52;;;8.60;69.00;;;;;;5050204;28;20053;-76
2020/12/27 04:16:26;;;;;;;0.60;0.60;;;8.60;68.90;;;;;;5039351;28;20128;-77
2020/12/27 04:18:52;;;;;;;0.60;0.57;;;8.60;68.80;;;;;;5040253;28;20028;-76
2020/12/27 04:21:17;;;;;;;0.73;0.60;;;8.50;68.70;;;;;;5046410;28;20174;-77
2020/12/27 04:23:43;;;;;;;0.80;0.70;;;8.50;68.80;;;;;;5041237;28;20032;-77
2020/12/27 04:26:08;;;;;;;1.00;0.70;;;8.50;69.20;;;;;;5024554;28;20044;-77
2020/12/27 04:28:34;;;;;;;0.63;0.55;;;8.50;68.60;;;;;;5041141;28;20025;-76
2020/12/27 04:30:59;;;;;;;0.65;0.55;;;8.50;68.70;;;;;;5035471;28;20140;-77
2020/12/27 04:33:24;;;;;;;0.68;0.68;;;8.50;68.70;;;;;;5041005;28;20051;-75
2020/12/27 04:35:50;;;;;;;0.60;0.47;;;8.50;68.60;;;;;;5042302;28;20055;-77
2020/12/27 04:38:15;;;;;;;0.50;0.50;;;8.40;68.60;;;;;;5041555;28;20033;-76
2020/12/27 04:40:42;;;;;;;1.42;0.40;;;8.40;68.70;;;;;;5037565;28;20120;-77
2020/12/27 04:43:08;;;;;;;0.60;0.50;;;8.40;68.70;;;;;;5043043;28;20413;-75
2020/12/27 04:45:34;;;;;;;0.60;0.60;;;8.40;68.70;;;;;;5045038;28;20037;-77
2020/12/27 04:47:59;;;;;;;0.88;0.40;;;8.50;68.70;;;;;;5040985;28;20421;-77
2020/12/27 04:50:26;;;;;;;1.02;0.50;;;8.60;68.90;;;;;;5044196;28;20048;-76
2020/12/27 04:52:53;;;;;;;0.60;0.60;;;8.40;68.80;;;;;;5042063;28;20025;-76
2020/12/27 04:55:18;;;;;;;0.47;0.40;;;8.30;68.70;;;;;;5048359;28;20481;-76
2020/12/27 04:57:47;;;;;;;0.75;0.50;;;8.40;68.80;;;;;;5045161;28;20055;-76
2020/12/27 05:00:13;;;;;;;0.40;0.40;;;8.40;68.80;;;;;;5042492;28;20036;-77
2020/12/27 05:02:38;;;;;;;1.15;0.50;;;8.40;68.70;;;;;;5047024;28;20033;-77
2020/12/27 05:05:12;;;;;;;0.40;0.40;;;8.40;68.70;;;;;;5046734;28;20584;-77
2020/12/27 05:07:43;;;;;;;0.43;0.35;;;8.40;68.70;;;;;;5040649;28;20021;-76
2020/12/27 05:10:09;;;;;;;;;;;8.40;68.60;;;;;;5041178;28;20426;-77
2020/12/27 05:12:36;;;;;;;0.47;0.40;;;8.40;68.00;;;;;;5045979;28;19920;-76
2020/12/27 05:15:06;;;;;;;0.52;0.38;;;8.40;68.30;;;;;;5044628;28;20034;-77
2020/12/27 05:17:31;;;;;;;0.55;0.40;;;8.40;68.40;;;;;;5041152;28;20108;-77
2020/12/27 05:19:56;;;;;;;0.50;0.38;;;8.40;68.50;;;;;;5038265;28;20030;-77
2020/12/27 05:22:23;;;;;;;0.57;0.40;;;8.40;68.60;;;;;;5040907;28;20041;-77
2020/12/27 05:24:51;;;;;;;0.60;0.50;;;8.40;68.70;;;;;;5043316;28;20080;-77
2020/12/27 05:27:17;;;;;;;0.40;0.40;;;8.40;68.70;;;;;;5040746;28;20044;-77
2020/12/27 05:29:42;;;;;;;0.70;0.50;;;8.40;68.70;;;;;;5045872;28;20041;-76
2020/12/27 05:32:09;;;;;;;0.40;0.38;;;8.30;68.60;;;;;;5044045;28;20029;-76
2020/12/27 05:34:35;;;;;;;0.63;0.30;;;8.50;68.80;;;;;;5041550;28;20140;-75
2020/12/27 05:37:05;;;;;;;0.28;0.28;;;8.40;68.80;;;;;;5042826;28;20041;-77
2020/12/27 05:39:31;;;;;;;0.43;0.30;;;8.40;68.80;;;;;;5043393;28;20021;-77
2020/12/27 05:42:05;;;;;;;0.60;0.40;;;8.50;68.90;;;;;;5041862;28;20034;-77
2020/12/27 05:44:32;;;;;;;0.20;0.20;;;8.40;68.60;;;;;;5042002;28;20021;-76
2020/12/27 05:46:58;;;;;;;1.00;0.30;;;8.50;68.90;;;;;;5040927;28;20075;-76
2020/12/27 05:49:25;;;;;;;1.05;0.38;;;8.50;68.80;;;;;;5049781;28;20052;-76
2020/12/27 05:51:55;;;;;;;0.30;0.30;;;8.50;68.90;;;;;;5032892;28;20043;-77
2020/12/27 05:54:31;;;;;;;0.52;0.35;;;8.50;69.30;;;;;;5040085;28;20402;-77
2020/12/27 05:56:58;;;;;;;0.63;0.28;;;8.50;68.40;;;;;;5043510;28;20051;-77
2020/12/27 05:59:32;;;;;;;0.68;0.30;;;8.60;68.70;;;;;;5046018;28;20146;-76
2020/12/27 06:01:58;;;;;;;0.30;0.30;;;8.60;68.70;;;;;;5043566;28;20029;-77
2020/12/27 06:04:57;;;;;;;0.30;0.30;;;8.50;68.40;;;;;;5045418;28;20040;-77
2020/12/27 06:07:35;;;;;;;0.22;0.22;;;8.60;68.10;;;;;;5041516;28;20040;-77
2020/12/27 06:10:01;;;;;;;0.30;0.30;;;8.60;68.10;;;;;;5043058;28;20087;-76
2020/12/27 06:12:46;;;;;;;0.28;0.20;;;8.50;68.20;;;;;;5043047;28;20494;-76
2020/12/27 06:15:22;;;;;;;0.35;0.30;;;8.50;68.20;;;;;;5043292;28;20090;-77
2020/12/27 06:18:08;;;;;;;0.60;0.40;;;8.50;67.80;;;;;;5039856;28;20026;-76
2020/12/27 06:20:35;;;;;;;0.28;0.28;;;8.50;68.10;;;;;;5044435;28;20036;-76
2020/12/27 06:23:02;;;;;;;0.52;0.25;;;8.40;68.30;;;;;;5026800;28;20045;-77
2020/12/27 06:25:29;;;;;;;0.30;0.30;;;8.30;68.30;;;;;;5045932;28;20060;-75
2020/12/27 06:27:56;;;;;;;0.65;0.20;;;8.30;68.40;;;;;;5046113;28;20029;-76
2020/12/27 06:30:26;;;;;;;0.20;0.20;;;8.30;68.50;;;;;;5048317;28;20048;-76
2020/12/27 06:33:14;;;;;;;0.20;0.20;;;8.30;68.60;;;;;;5050525;28;20037;-75
2020/12/27 06:35:44;;;;;;;0.30;0.20;;;8.20;68.60;;;;;;5051022;28;20029;-76
2020/12/27 06:38:16;;;;;;;0.30;0.10;;;8.20;68.70;;;;;;5046902;28;20044;-75
2020/12/27 06:40:45;;;;;;;0.80;0.80;;;8.20;68.70;;;;;;5045132;28;20029;-76
2020/12/27 06:43:19;;;;;;;0.30;0.30;;;8.20;68.80;;;;;;5045604;28;20033;-75
2020/12/27 06:45:46;;;;;;;0.20;0.20;;;8.20;68.90;;;;;;5046872;28;20045;-77
2020/12/27 06:48:36;;;;;;;0.28;0.20;;;8.10;69.00;;;;;;5049616;28;20040;-76
2020/12/27 06:51:02;;;;;;;0.20;0.20;;;8.20;69.00;;;;;;5051560;28;20125;-75
2020/12/27 06:53:44;;;;;;;0.10;0.10;;;8.10;69.20;;;;;;5049519;28;20029;-75
2020/12/27 06:56:12;;;;;;;0.30;0.30;;;8.10;69.20;;;;;;5053095;28;20501;-76
2020/12/27 06:58:38;;;;;;;0.73;0.30;;;8.10;69.30;;;;;;5045070;28;20083;-76
2020/12/27 07:01:15;;;;;;;0.50;0.30;;;8.10;69.30;;;;;;5053328;28;20029;-76
2020/12/27 07:03:43;;;;;;;0.45;0.22;;;8.10;69.30;;;;;;5043840;28;20162;-75
2020/12/27 07:06:22;;;;;;;0.47;0.30;;;8.20;69.40;;;;;;5046960;28;20041;-75
2020/12/27 07:08:48;;;;;;;0.60;0.40;;;8.10;69.30;;;;;;5029229;28;20447;-76
2020/12/27 07:11:19;;;;;;;0.40;0.20;;;8.10;69.30;;;;;;5037739;28;20036;-76
2020/12/27 07:13:47;;;;;;;0.30;0.20;;;8.10;69.30;;;;;;5052612;28;20028;-75
2020/12/27 07:16:15;;;;;;;0.20;0.20;;;8.10;69.40;;;;;;5048021;28;20041;-76
2020/12/27 07:18:43;;;;;;;0.30;0.30;;;8.10;69.40;;;;;;5043591;28;20047;-76
2020/12/27 07:21:13;;;;;;;0.10;0.10;;;8.10;69.40;;;;;;5046252;28;20037;-76
2020/12/27 07:23:46;;;;;;;0.30;0.30;;;8.10;69.40;;;;;;5039803;28;20025;-75
2020/12/27 07:26:12;;;;;;;0.20;0.20;;;8.10;69.40;;;;;;5039633;28;20061;-76
2020/12/27 07:28:38;;;;;;;0.35;0.20;;;8.10;69.50;;;;;;5041071;28;20040;-75
2020/12/27 07:31:05;;;;;;;0.50;0.30;;;8.10;69.50;;;;;;5041308;28;20029;-76
2020/12/27 07:33:41;;;;;;;0.40;0.40;;;8.10;69.50;;;;;;5023138;28;20049;-76
2020/12/27 07:36:09;;;;;;;0.47;0.30;;;8.10;69.50;;;;;;5042199;28;20053;-76
2020/12/27 07:38:54;;;;;;;0.65;0.30;;;8.10;69.50;;;;;;5037634;28;20113;-75
2020/12/27 07:41:27;;;;;;;0.30;0.30;;;8.10;69.40;;;;;;5037109;28;20040;-75
2020/12/27 07:43:53;;;;;;;0.32;0.20;;;8.10;69.50;;;;;;5037649;28;20410;-75
2020/12/27 07:46:20;;;;;;;0.30;0.20;;;8.10;69.50;;;;;;5033030;28;20037;-75
2020/12/27 07:48:47;;;;;;;0.30;0.30;;;8.10;69.60;;;;;;5024288;28;20541;-75
2020/12/27 07:51:20;;;;;;;0.35;0.20;;;8.10;69.60;;;;;;5041885;28;20132;-75
2020/12/27 07:53:48;;;;;;;0.22;0.22;;;8.10;69.60;;;;;;5040638;28;20091;-75
2020/12/27 07:56:18;;;;;;;1.77;0.32;;;8.10;69.70;;;;;;5048848;28;20582;-74
2020/12/27 07:59:03;;;;;;;0.40;0.40;;;8.20;69.80;;;;;;5041856;28;20025;-75
2020/12/27 08:01:33;;;;;;;0.40;0.30;;;8.20;69.50;;;;;;5041378;28;20037;-75
2020/12/27 08:04:00;;;;;;;0.55;0.40;;;8.20;69.90;;;;;;5044167;28;20041;-75
2020/12/27 08:06:28;;;;;;;0.20;0.20;;;8.30;69.90;;;;;;5043065;28;20041;-75
2020/12/27 08:09:08;;;;;;;0.40;0.30;;;8.30;69.90;;;;;;5041955;28;20044;-75
2020/12/27 08:11:36;;;;;;;0.38;0.30;;;8.30;69.70;;;;;;5041260;28;20044;-75
2020/12/27 08:14:04;;;;;;;0.63;0.55;;;8.30;69.80;;;;;;5046372;28;20036;-75
2020/12/27 08:16:30;;;;;;;0.50;0.45;;;8.40;69.90;;;;;;5047947;28;20029;-74
2020/12/27 08:19:15;;;;;;;0.30;0.30;;;8.40;69.80;;;;;;5040906;28;20109;-75
2020/12/27 08:21:45;;;;;;;0.40;0.30;;;8.50;69.50;;;;;;5043053;28;20036;-76
2020/12/27 08:24:15;;;;;;;0.30;0.30;;;8.50;69.70;;;;;;5036792;28;20040;-76
2020/12/27 08:26:42;;;;;;;0.20;0.20;;;8.50;69.60;;;;;;5032560;28;20033;-75
2020/12/27 08:29:20;;;;;;;0.38;0.30;;;8.60;69.70;;;;;;5035833;28;20087;-75
2020/12/27 08:31:51;;;;;;;0.20;0.20;;;8.60;69.30;;;;;;5031546;28;20056;-75
2020/12/27 08:34:17;;;;;;;0.20;0.20;;;8.60;69.50;;;;;;5036033;28;20494;-75
2020/12/27 08:36:47;;;;;;;0.35;0.30;;;8.70;69.60;;;;;;5020202;28;20548;-75
2020/12/27 08:39:19;;;;;;;0.30;0.30;;;8.70;69.50;;;;;;5035522;28;20428;-76
2020/12/27 08:41:52;;;;;;;0.17;0.17;;;8.80;69.60;;;;;;5040286;28;20021;-75
2020/12/27 08:44:41;;;;;;;0.20;0.20;;;8.80;69.60;;;;;;5032615;28;20064;-76
2020/12/27 08:47:19;;;;;;;0.20;0.20;;;8.80;69.30;;;;;;5035071;28;20084;-74
2020/12/27 08:49:58;;;;;;;0.30;0.30;;;8.90;69.40;;;;;;5041306;28;20033;-75
2020/12/27 08:52:24;;;;;;;0.35;0.30;;;8.90;69.20;;;;;;5038085;28;20029;-74
2020/12/27 08:55:02;;;;;;;0.35;0.30;;;8.90;69.40;;;;;;5039627;28;20033;-75
2020/12/27 08:57:28;;;;;;;0.47;0.38;;;9.00;69.10;;;;;;5036831;28;20033;-75
2020/12/27 09:00:04;;;;;;;0.35;0.35;;;9.00;69.30;;;;;;5037122;28;20127;-75
2020/12/27 09:02:29;;;;;;;0.30;0.30;;;9.00;69.10;;;;;;5042183;28;20502;-76
2020/12/27 09:05:05;;;;;;;0.20;0.20;;;9.00;69.20;;;;;;5040054;28;20056;-74
2020/12/27 09:07:32;;;;;;;1.23;0.47;;;9.00;68.80;;;;;;5042794;28;20025;-75
2020/12/27 09:10:06;;;;;;;0.30;0.30;;;9.00;68.60;;;;;;5049352;28;20163;-76
2020/12/27 09:12:31;;;;;;;0.40;0.40;;;9.10;68.70;;;;;;5049485;28;20025;-74
2020/12/27 09:14:57;;;;;;;0.30;0.30;;;9.10;68.90;;;;;;5038965;28;20037;-75
2020/12/27 09:17:26;;;;;;;0.20;0.20;;;9.10;68.90;;;;;;5020687;28;20393;-74
2020/12/27 09:19:54;;;;;;;0.20;0.20;;;9.10;69.00;;;;;;5042100;28;20045;-75
2020/12/27 09:22:19;;;;;;;0.30;0.22;;;9.10;68.90;;;;;;5029011;28;20029;-73
2020/12/27 09:24:44;;;;;;;0.90;0.30;;;9.20;68.80;;;;;;5039357;28;20375;-75
2020/12/27 09:27:11;;;;;;;0.47;0.38;;;9.30;68.80;;;;;;5040496;28;20029;-75
2020/12/27 09:29:37;;;;;;;0.50;0.30;;;9.20;68.70;;;;;;5039690;28;20028;-76
2020/12/27 09:32:13;;;;;;;0.35;0.25;;;9.20;68.70;;;;;;5040060;28;20026;-74
2020/12/27 09:34:40;;;;;;;0.43;0.30;;;9.30;68.40;;;;;;5041169;28;20022;-74
2020/12/27 09:37:13;;;;;;;0.20;0.20;;;9.20;68.60;;;;;;5040568;28;20042;-76
2020/12/27 09:39:38;;;;;;;0.30;0.22;;;9.20;68.20;;;;;;5039494;28;20028;-75
2020/12/27 09:42:04;;;;;;;0.95;0.30;;;9.20;68.40;;;;;;5038840;28;20029;-75
2020/12/27 09:44:30;;;;;;;1.08;0.30;;;9.30;68.30;;;;;;5039606;28;20029;-75
2020/12/27 09:46:57;;;;;;;0.28;0.20;;;9.20;68.10;;;;;;5035414;28;20475;-74
2020/12/27 09:49:28;;;;;;;0.50;0.30;;;9.20;68.10;;;;;;5042932;28;20033;-76
2020/12/27 09:52:07;;;;;;;0.38;0.30;;;9.20;68.00;;;;;;5047970;28;20032;-74
2020/12/27 09:54:34;;;;;;;0.10;0.10;;;9.20;67.90;;;;;;5046368;28;20398;-75
2020/12/27 09:57:13;;;;;;;0.35;0.30;;;9.20;68.10;;;;;;5049582;28;20585;-75
2020/12/27 09:59:39;;;;;;;0.28;0.28;;;9.20;67.90;;;;;;5043884;28;20029;-75
2020/12/27 10:02:05;;;;;;;0.13;0.10;;;9.10;68.10;;;;;;5042112;28;20086;-75
2020/12/27 10:04:32;;;;;;;0.50;0.30;;;9.10;68.10;;;;;;5041149;28;20056;-74
2020/12/27 10:06:57;;;;;;;0.45;0.32;;;9.10;68.20;;;;;;5049032;23;20046;-75
2020/12/27 10:09:23;;;;;;;0.32;0.15;;;9.10;68.10;;;;;;4999088;28;20034;-76
2020/12/27 10:11:48;;;;;;;0.20;0.20;;;9.10;68.10;;;;;;4993715;28;20475;-74
2020/12/27 10:14:14;;;;;;;0.10;0.10;;;9.20;68.20;;;;;;4993584;28;20026;-75
2020/12/27 10:16:40;;;;;;;0.10;0.10;;;9.00;68.10;;;;;;4986014;28;20034;-75
2020/12/27 10:19:05;;;;;;;0.38;0.20;;;9.00;68.20;;;;;;4969291;28;20046;-75
2020/12/27 10:21:31;;;;;;;0.20;0.20;;;8.90;68.10;;;;;;4967599;28;20031;-75
2020/12/27 10:23:56;;;;;;;0.17;0.17;;;9.00;68.20;;;;;;4985955;28;20027;-75
2020/12/27 10:26:22;;;;;;;0.10;0.10;;;9.00;68.20;;;;;;4987029;28;20038;-75
2020/12/27 10:28:48;;;;;;;0.17;0.17;;;9.10;68.30;;;;;;4983801;28;20132;-75
2020/12/27 10:31:13;;;;;;;0.47;0.30;;;8.90;68.20;;;;;;4985156;28;20042;-75
2020/12/27 10:33:39;;;;;;;1.65;0.55;;;8.90;68.30;;;;;;4985767;28;20031;-75
2020/12/27 10:36:05;;;;;;;0.45;0.35;;;8.90;68.20;;;;;;4984368;28;20238;-75
2020/12/27 10:38:30;;;;;;;0.35;0.30;;;8.90;68.40;;;;;;4987838;28;20109;-75
2020/12/27 10:40:56;;;;;;;0.17;0.17;;;8.90;68.40;;;;;;4975839;28;20030;-74
2020/12/27 10:43:21;;;;;;;0.35;0.28;;;8.90;68.50;;;;;;4973034;28;20142;-75
2020/12/27 10:45:47;;;;;;;0.38;0.30;;;8.80;68.40;;;;;;4968874;28;20035;-74
2020/12/27 10:48:12;;;;;;;1.10;0.30;;;8.80;68.40;;;;;;4956553;28;20471;-74
2020/12/27 10:50:39;;;;;;;0.95;0.30;;;8.80;68.40;;;;;;4967503;28;20035;-75
2020/12/27 10:53:04;;;;;;;0.38;0.32;;;8.90;68.50;;;;;;4973359;28;20034;-78
2020/12/27 10:55:30;;;;;;;0.60;0.40;;;8.80;68.40;;;;;;4974438;28;20065;-75
2020/12/27 10:57:55;;;;;;;0.30;0.30;;;8.90;68.50;;;;;;4966039;28;20046;-77
2020/12/27 11:00:21;;;;;;;1.13;0.40;;;8.90;68.50;;;;;;4972566;28;20128;-77
2020/12/27 11:02:46;;;;;;;0.40;0.40;;;8.80;68.40;;;;;;4967552;28;20026;-75
2020/12/27 11:05:12;;;;;;;0.20;0.20;;;8.90;68.50;;;;;;4972076;28;20503;-77
2020/12/27 11:07:37;;;;;;;0.25;0.25;;;8.90;68.60;;;;;;4974133;28;20042;-79
2020/12/27 11:10:03;;;;;;;0.30;0.30;;;8.80;68.60;;;;;;4971926;28;20030;-78
2020/12/27 11:12:28;;;;;;;0.30;0.30;;;8.90;68.60;;;;;;4972400;28;20450;-76
2020/12/27 11:14:54;;;;;;;0.50;0.43;;;8.90;68.70;;;;;;4967525;28;20035;-77
2020/12/27 11:17:19;;;;;;;1.98;0.40;;;8.90;68.60;;;;;;4974031;28;20085;-80
2020/12/27 11:19:45;;;;;;;0.80;0.47;;;8.90;68.70;;;;;;4967807;28;20030;-76
2020/12/27 11:22:10;;;;;;;0.60;0.38;;;8.90;68.70;;;;;;4972785;28;20081;-74
2020/12/27 11:24:36;;;;;;;0.50;0.20;;;8.90;68.50;;;;;;4974596;28;20447;-78
2020/12/27 11:27:01;;;;;;;0.32;0.30;;;8.90;68.70;;;;;;4967783;28;20114;-77
2020/12/27 11:29:27;;;;;;;1.27;0.30;;;8.90;68.70;;;;;;4972388;28;20117;-74
2020/12/27 11:31:53;;;;;;;0.25;0.25;;;9.00;68.80;;;;;;4966801;28;20022;-80
2020/12/27 11:34:19;;;;;;;0.30;0.25;;;9.00;68.70;;;;;;4974046;28;20153;-77
2020/12/27 11:36:48;;;;;;;1.35;0.25;;;9.00;68.70;;;;;;4966245;28;20118;-77
2020/12/27 11:39:14;;;;;;;0.30;0.30;;;9.00;68.60;;;;;;4973004;28;20438;-77
2020/12/27 11:41:40;;;;;;;0.43;0.30;;;9.00;68.60;;;;;;4973498;28;20027;-77
2020/12/27 11:44:05;;;;;;;1.17;1.08;;;9.00;68.60;;;;;;4967134;28;20120;-78
2020/12/27 11:46:31;;;;;;;0.30;0.30;;;9.00;68.50;;;;;;4973045;28;20038;-77
2020/12/27 11:48:56;;;;;;;0.22;0.22;;;9.00;68.50;;;;;;4970512;28;20443;-76
2020/12/27 11:51:21;;;;;;;0.30;0.30;;;9.00;68.30;;;;;;4972863;28;20038;-75
2020/12/27 11:53:47;;;;;;;0.30;0.30;;;9.10;68.30;;;;;;4971318;28;20545;-74
2020/12/27 11:56:17;;;;;;;0.20;0.20;;;9.00;68.30;;;;;;4971293;28;20049;-75
2020/12/27 11:58:42;;;;;;;0.55;0.20;;;8.90;68.20;;;;;;4978518;28;20034;-78
2020/12/27 12:01:11;;;;;;;0.75;0.30;;;9.00;68.30;;;;;;4979876;28;20049;-75
2020/12/27 12:03:37;;;;;;;0.22;0.22;;;8.90;68.20;;;;;;4980704;28;20081;-76
2020/12/27 12:06:02;;;;;;;0.20;0.20;;;8.90;68.30;;;;;;4979278;28;20046;-73
2020/12/27 12:08:27;;;;;;;0.77;0.35;;;8.80;68.30;;;;;;4980029;28;20424;-74
2020/12/27 12:10:53;;;;;;;0.40;0.30;;;8.80;68.30;;;;;;4980833;28;20096;-75
2020/12/27 12:13:19;;;;;;;0.32;0.30;;;8.80;68.40;;;;;;4980572;28;20424;-75
2020/12/27 12:15:44;;;;;;;0.77;0.50;;;8.80;68.40;;;;;;4979725;28;20569;-75
2020/12/27 12:18:10;;;;;;;0.65;0.65;;;8.70;68.40;;;;;;4980337;28;20034;-75
2020/12/27 12:20:47;;;;;;;1.10;0.50;;;8.70;68.50;;;;;;4979723;28;20046;-77
2020/12/27 12:23:14;;;;;;;0.73;0.40;;;8.70;68.60;;;;;;4972931;28;20154;-74
2020/12/27 12:25:44;;;;;;;0.55;0.40;;;8.70;68.60;;;;;;4979187;28;20085;-75
2020/12/27 12:28:10;;;;;;;0.32;0.30;;;8.60;68.50;;;;;;4979799;28;20042;-75
2020/12/27 12:30:42;;;;;;;0.70;0.57;;;8.70;68.50;;;;;;4979481;28;20042;-76
2020/12/27 12:33:08;;;;;;;0.50;0.50;;;8.60;68.50;;;;;;4980154;28;20027;-76
2020/12/27 12:35:35;;;;;;;0.68;0.40;;;8.60;68.50;;;;;;4979586;28;20042;-77
2020/12/27 12:38:00;;;;;;;0.70;0.70;;;8.60;68.60;;;;;;4963193;28;20065;-78
2020/12/27 12:40:26;;;;;;;0.80;0.60;;;8.60;69.10;;;;;;4962206;28;20038;-75
2020/12/27 12:42:52;;;;;;;0.63;0.50;;;8.50;68.60;;;;;;4979575;28;20026;-75
2020/12/27 12:45:18;;;;;;;0.82;0.60;;;8.50;68.60;;;;;;4979653;28;20046;-75
2020/12/27 12:47:44;;;;;;;0.73;0.50;;;8.40;68.50;;;;;;4980138;28;20038;-77
2020/12/27 12:50:09;;;;;;;0.95;0.73;;;8.20;68.50;;;;;;4979463;28;20038;-76
2020/12/27 12:52:35;;;;;;;0.57;0.50;;;8.30;68.60;;;;;;4979573;28;20039;-75
2020/12/27 12:55:01;;;;;;;1.38;0.82;;;8.30;68.60;;;;;;4979853;28;20022;-76
2020/12/27 12:57:26;;;;;;;0.85;0.60;;;8.30;68.60;;;;;;4965911;28;20105;-74
2020/12/27 12:59:52;;;;;;;0.65;0.65;;;8.30;68.70;;;;;;4976294;28;20069;-75
2020/12/27 13:02:17;;;;;;;1.08;0.65;;;8.20;68.70;;;;;;4975652;28;20572;-75